createdAt,value
2023-02-26T00:01:27.909Z,16.20
2023-02-26T00:03:57.032Z,12.20
2023-02-26T00:06:26.410Z,15.40
2023-02-26T00:08:55.160Z,15.60
2023-02-26T00:11:23.918Z,12.80
2023-02-26T00:13:52.588Z,12.00
2023-02-26T00:16:26.355Z,12.00
2023-02-26T00:18:56.407Z,14.60
2023-02-26T00:21:25.358Z,12.20
2023-02-26T00:23:53.661Z,13.80
2023-02-26T00:26:22.101Z,14.00
2023-02-26T00:28:50.569Z,10.40
2023-02-26T00:31:21.147Z,12.40
2023-02-26T00:33:49.699Z,12.60
2023-02-26T00:36:22.575Z,10.00
2023-02-26T00:38:58.478Z,7.40
2023-02-26T00:41:26.944Z,19.00
2023-02-26T00:43:55.488Z,12.00
2023-02-26T00:46:29.741Z,15.80
2023-02-26T00:49:04.120Z,10.00
2023-02-26T00:51:38.108Z,11.20
2023-02-26T00:54:09.474Z,15.40
2023-02-26T00:56:37.827Z,12.80
2023-02-26T00:59:06.257Z,13.40
2023-02-26T01:01:34.370Z,17.60
2023-02-26T01:04:02.854Z,14.80
2023-02-26T01:06:34.003Z,13.40
2023-02-26T01:09:10.642Z,12.00
2023-02-26T01:11:38.967Z,13.00
2023-02-26T01:14:07.340Z,12.20
2023-02-26T01:16:38.304Z,12.80
2023-02-26T01:19:13.748Z,9.60
2023-02-26T01:21:44.487Z,9.50
2023-02-26T01:24:16.937Z,7.00
2023-02-26T01:26:45.239Z,7.40
2023-02-26T01:29:13.576Z,12.00
2023-02-26T01:31:44.394Z,0.00
2023-02-26T01:34:16.865Z,7.50
2023-02-26T01:36:49.426Z,8.00
2023-02-26T01:39:21.575Z,9.00
2023-02-26T01:41:51.374Z,8.00
2023-02-26T01:44:25.377Z,4.00
2023-02-26T01:47:02.401Z,7.50
2023-02-26T01:49:31.627Z,5.00
2023-02-26T01:52:00.550Z,6.25
2023-02-26T01:54:32.260Z,7.00
2023-02-26T01:57:05.143Z,9.75
2023-02-26T01:59:34.256Z,7.00
2023-02-26T02:02:04.563Z,6.50
2023-02-26T02:04:33.962Z,5.75
2023-02-26T02:07:03.419Z,7.00
2023-02-26T02:09:32.970Z,6.00
2023-02-26T02:12:09.175Z,4.50
2023-02-26T02:14:43.081Z,9.00
2023-02-26T02:17:15.618Z,3.50
2023-02-26T02:19:56.383Z,9.00
2023-02-26T02:22:37.042Z,6.00
2023-02-26T02:25:15.108Z,7.00
2023-02-26T02:27:46.884Z,6.00
2023-02-26T02:30:27.778Z,9.50
2023-02-26T02:32:59.481Z,6.00
2023-02-26T02:35:31.611Z,6.00
2023-02-26T02:38:02.529Z,6.00
2023-02-26T02:40:33.394Z,8.50
2023-02-26T02:43:04.268Z,8.00
2023-02-26T02:45:35.559Z,6.00
2023-02-26T02:48:08.391Z,6.50
2023-02-26T02:50:38.519Z,6.00
2023-02-26T02:53:10.765Z,7.25
2023-02-26T02:55:44.400Z,3.00
2023-02-26T02:58:14.914Z,6.25
2023-02-26T03:00:45.047Z,6.50
2023-02-26T03:03:17.777Z,9.00
2023-02-26T03:05:45.890Z,1.00
2023-02-26T03:08:17.119Z,5.00
2023-02-26T03:10:48.037Z,4.00
2023-02-26T03:13:18.230Z,1.00
2023-02-26T03:15:53.653Z,3.00
2023-02-26T03:18:31.609Z,6.00
2023-02-26T03:21:04.263Z,4.00
2023-02-26T03:23:35.625Z,4.00
2023-02-26T03:26:09.974Z,3.50
2023-02-26T03:28:42.934Z,3.75
2023-02-26T03:31:16.952Z,4.00
2023-02-26T03:33:51.731Z,4.00
2023-02-26T03:36:23.169Z,6.25
2023-02-26T03:39:06.928Z,3.25
2023-02-26T03:41:40.174Z,5.00
2023-02-26T03:44:11.012Z,5.00
2023-02-26T03:46:43.885Z,7.00
2023-02-26T03:49:16.050Z,6.50
2023-02-26T03:51:44.778Z,8.75
2023-02-26T03:54:44.788Z,9.00
2023-02-26T03:57:45.433Z,6.00
2023-02-26T04:00:45.756Z,7.00
2023-02-26T04:03:16.423Z,9.25
2023-02-26T04:05:49.088Z,7.50
2023-02-26T04:08:17.605Z,7.50
2023-02-26T04:10:48.759Z,7.50
2023-02-26T04:13:16.969Z,8.50
2023-02-26T04:15:45.263Z,6.25
2023-02-26T04:18:13.415Z,7.00
2023-02-26T04:20:41.522Z,8.00
2023-02-26T04:23:13.201Z,7.50
2023-02-26T04:25:41.512Z,5.00
2023-02-26T04:28:10.852Z,7.00
2023-02-26T04:30:39.109Z,7.00
2023-02-26T04:33:09.780Z,10.50
2023-02-26T04:35:38.355Z,7.00
2023-02-26T04:38:06.698Z,9.50
2023-02-26T04:40:36.714Z,8.00
2023-02-26T04:43:06.066Z,10.50
2023-02-26T04:45:39.709Z,11.00
2023-02-26T04:48:08.205Z,7.00
2023-02-26T04:50:36.426Z,6.50
2023-02-26T04:53:04.863Z,9.75
2023-02-26T04:55:36.512Z,9.75
2023-02-26T04:58:06.799Z,9.50
2023-02-26T05:00:35.432Z,6.00
2023-02-26T05:03:04.638Z,6.75
2023-02-26T05:05:32.790Z,11.20
2023-02-26T05:08:01.057Z,9.50
2023-02-26T05:10:29.264Z,11.00
2023-02-26T05:12:58.874Z,12.25
2023-02-26T05:15:26.944Z,8.00
2023-02-26T05:17:55.217Z,6.75
2023-02-26T05:20:23.588Z,11.20
2023-02-26T05:22:51.908Z,4.00
2023-02-26T05:25:20.277Z,9.50
2023-02-26T05:27:49.262Z,9.00
2023-02-26T05:30:19.162Z,2.50
2023-02-26T05:32:47.366Z,8.00
2023-02-26T05:35:15.633Z,9.00
2023-02-26T05:37:43.741Z,2.50
2023-02-26T05:40:12.565Z,4.00
2023-02-26T05:42:41.163Z,7.00
2023-02-26T05:45:09.858Z,7.00
2023-02-26T05:47:39.536Z,6.00
2023-02-26T05:50:08.127Z,6.00
2023-02-26T05:52:36.428Z,6.75
2023-02-26T05:55:04.915Z,4.00
2023-02-26T05:57:33.027Z,3.50
2023-02-26T06:00:01.158Z,4.00
2023-02-26T06:02:29.395Z,4.00
2023-02-26T06:04:59.129Z,3.50
2023-02-26T06:07:27.336Z,4.00
2023-02-26T06:09:55.475Z,6.25
2023-02-26T06:12:23.609Z,6.00
2023-02-26T06:14:51.750Z,6.00
2023-02-26T06:17:19.848Z,4.00
2023-02-26T06:19:48.044Z,6.00
2023-02-26T06:22:17.683Z,6.75
2023-02-26T06:24:45.954Z,4.25
2023-02-26T06:27:14.209Z,9.00
2023-02-26T06:29:42.317Z,7.00
2023-02-26T06:32:11.051Z,1.25
2023-02-26T06:34:39.303Z,4.00
2023-02-26T06:37:07.945Z,1.75
2023-02-26T06:39:37.477Z,4.00
2023-02-26T06:42:05.913Z,4.00
2023-02-26T06:44:34.098Z,1.00
2023-02-26T06:47:02.327Z,3.00
2023-02-26T06:49:30.553Z,3.00
2023-02-26T06:51:58.824Z,4.00
2023-02-26T06:54:27.114Z,4.00
2023-02-26T06:56:58.083Z,4.00
2023-02-26T06:59:26.332Z,1.75
2023-02-26T07:01:54.621Z,6.00
2023-02-26T07:04:22.898Z,4.00
2023-02-26T07:06:51.066Z,5.25
2023-02-26T07:09:20.233Z,9.50
2023-02-26T07:11:48.713Z,5.25
2023-02-26T07:14:18.274Z,6.75
2023-02-26T07:16:46.408Z,1.50
2023-02-26T07:19:14.554Z,4.00
2023-02-26T07:21:42.738Z,4.00
2023-02-26T07:24:10.880Z,5.50
2023-02-26T07:26:39.404Z,2.50
2023-02-26T07:29:07.521Z,4.00
2023-02-26T07:31:37.490Z,6.25
2023-02-26T07:34:05.842Z,6.25
2023-02-26T07:36:34.169Z,3.00
2023-02-26T07:39:02.276Z,3.00
2023-02-26T07:41:30.756Z,4.00
2023-02-26T07:43:59.056Z,3.00
2023-02-26T07:46:27.569Z,3.50
2023-02-26T07:48:57.435Z,0.00
2023-02-26T07:51:26.021Z,4.00
2023-02-26T07:53:54.552Z,1.00
2023-02-26T07:56:22.928Z,4.00
2023-02-26T07:58:51.218Z,4.00
2023-02-26T08:01:19.335Z,1.00
2023-02-26T08:03:47.505Z,3.50
2023-02-26T08:06:17.065Z,5.00
2023-02-26T08:08:45.220Z,5.50
2023-02-26T08:11:13.373Z,4.25
2023-02-26T08:13:41.527Z,3.00
2023-02-26T08:16:09.804Z,3.50
2023-02-26T08:18:38.348Z,4.00
2023-02-26T08:21:06.853Z,4.00
2023-02-26T08:23:36.417Z,4.25
2023-02-26T08:26:05.464Z,2.25
2023-02-26T08:28:33.749Z,3.75
2023-02-26T08:31:02.572Z,2.25
2023-02-26T08:33:31.384Z,4.00
2023-02-26T08:35:59.500Z,5.25
2023-02-26T08:38:27.890Z,4.00
2023-02-26T08:40:57.654Z,3.00
2023-02-26T08:43:26.403Z,3.25
2023-02-26T08:45:55.258Z,3.00
2023-02-26T08:48:23.432Z,1.50
2023-02-26T08:50:51.946Z,3.00
2023-02-26T08:53:20.326Z,1.75
2023-02-26T08:55:49.304Z,1.00
2023-02-26T08:58:19.258Z,2.25
2023-02-26T09:00:47.740Z,5.00
2023-02-26T09:03:19.772Z,4.00
2023-02-26T09:05:48.064Z,6.25
2023-02-26T09:08:19.737Z,4.75
2023-02-26T09:10:48.600Z,7.00
2023-02-26T09:13:18.553Z,5.25
2023-02-26T09:15:46.886Z,3.25
2023-02-26T09:18:16.568Z,6.25
2023-02-26T09:20:45.252Z,7.00
2023-02-26T09:23:13.802Z,1.75
2023-02-26T09:25:42.009Z,3.25
2023-02-26T09:28:10.225Z,3.25
2023-02-26T09:30:39.805Z,1.50
2023-02-26T09:33:09.730Z,4.75
2023-02-26T09:35:37.999Z,6.75
2023-02-26T09:38:06.250Z,4.75
2023-02-26T09:40:42.252Z,6.00
2023-02-26T09:43:29.099Z,8.25
2023-02-26T09:46:01.553Z,7.25
2023-02-26T09:48:31.242Z,11.50
2023-02-26T09:51:00.426Z,8.75
2023-02-26T09:53:31.538Z,3.00
2023-02-26T09:56:03.129Z,2.25
2023-02-26T09:58:32.524Z,3.75
2023-02-26T10:01:07.685Z,3.00
2023-02-26T10:03:43.283Z,1.00
2023-02-26T10:06:20.128Z,2.00
2023-02-26T10:08:53.255Z,3.25
2023-02-26T10:11:27.666Z,0.00
2023-02-26T10:13:58.622Z,1.50
2023-02-26T10:16:30.010Z,3.00
2023-02-26T10:19:02.272Z,2.50
2023-02-26T10:21:34.192Z,0.00
2023-02-26T10:24:06.435Z,3.50
2023-02-26T10:26:36.460Z,3.00
2023-02-26T10:29:15.870Z,3.25
2023-02-26T10:31:51.083Z,1.00
2023-02-26T10:34:24.578Z,1.50
2023-02-26T10:36:59.810Z,1.00
2023-02-26T10:39:31.754Z,2.25
2023-02-26T10:42:03.019Z,1.25
2023-02-26T10:44:35.800Z,1.00
2023-02-26T10:47:09.431Z,0.00
2023-02-26T10:49:45.025Z,3.00
2023-02-26T10:52:16.178Z,2.25
2023-02-26T10:54:49.524Z,4.00
2023-02-26T10:57:20.617Z,1.50
2023-02-26T10:59:49.009Z,1.75
2023-02-26T11:02:36.281Z,4.00
2023-02-26T11:05:07.921Z,1.75
2023-02-26T11:07:38.129Z,2.00
2023-02-26T11:10:14.190Z,1.00
2023-02-26T11:12:42.531Z,1.00
2023-02-26T11:15:17.501Z,2.00
2023-02-26T11:17:50.237Z,4.00
2023-02-26T11:20:22.879Z,2.00
2023-02-26T11:22:56.424Z,4.00
2023-02-26T11:25:25.654Z,1.00
2023-02-26T11:27:58.560Z,4.00
2023-02-26T11:30:28.311Z,2.25
2023-02-26T11:32:58.796Z,1.00
2023-02-26T11:35:27.865Z,4.25
2023-02-26T11:37:57.803Z,4.00
2023-02-26T11:40:29.596Z,3.50
2023-02-26T11:42:59.766Z,3.75
2023-02-26T11:45:28.029Z,4.00
2023-02-26T11:48:02.467Z,4.00
2023-02-26T11:50:31.120Z,1.00
2023-02-26T11:53:05.926Z,5.00
2023-02-26T11:55:35.716Z,6.00
2023-02-26T11:58:07.123Z,3.00
2023-02-26T12:00:37.672Z,4.00
2023-02-26T12:03:10.835Z,7.00
2023-02-26T12:05:39.020Z,2.25
2023-02-26T12:08:15.212Z,1.25
2023-02-26T12:10:47.128Z,3.00
2023-02-26T12:13:19.132Z,3.00
2023-02-26T12:15:52.875Z,1.00
2023-02-26T12:18:31.723Z,4.00
2023-02-26T12:21:07.520Z,1.00
2023-02-26T12:23:50.563Z,2.25
2023-02-26T12:26:24.652Z,2.25
2023-02-26T12:29:05.848Z,3.00
2023-02-26T12:31:40.691Z,4.00
2023-02-26T12:34:20.971Z,1.00
2023-02-26T12:36:57.686Z,4.00
2023-02-26T12:39:33.895Z,4.00
2023-02-26T12:42:09.300Z,5.25
2023-02-26T12:44:55.207Z,1.25
2023-02-26T12:47:30.155Z,5.25
2023-02-26T12:50:09.082Z,3.00
2023-02-26T12:52:44.688Z,1.00
2023-02-26T12:55:21.495Z,0.00
2023-02-26T12:58:00.641Z,1.25
2023-02-26T13:00:36.220Z,3.25
2023-02-26T13:03:23.211Z,3.25
2023-02-26T13:06:02.084Z,6.00
2023-02-26T13:08:35.843Z,4.75
2023-02-26T13:11:09.159Z,3.00
2023-02-26T13:13:44.806Z,3.00
2023-02-26T13:16:20.192Z,4.75
2023-02-26T13:18:51.610Z,2.50
2023-02-26T13:21:27.468Z,1.50
2023-02-26T13:23:58.324Z,3.00
2023-02-26T13:26:28.486Z,4.00
2023-02-26T13:29:00.112Z,7.00
2023-02-26T13:31:31.711Z,13.00
2023-02-26T13:34:05.593Z,17.60
2023-02-26T13:36:36.636Z,12.80
2023-02-26T13:39:11.501Z,12.50
2023-02-26T13:41:46.730Z,1.00
2023-02-26T13:44:20.561Z,7.00
2023-02-26T13:46:53.362Z,9.00
2023-02-26T13:49:24.549Z,9.00
2023-02-26T13:51:55.735Z,10.00
2023-02-26T13:54:31.372Z,7.00
2023-02-26T13:57:11.692Z,11.80
2023-02-26T13:59:49.102Z,15.60
2023-02-26T14:02:37.921Z,13.80
2023-02-26T14:05:11.042Z,15.80
2023-02-26T14:07:53.858Z,13.00
2023-02-26T14:10:26.357Z,12.25
2023-02-26T14:13:04.843Z,16.20
2023-02-26T14:15:42.146Z,12.60
2023-02-26T14:18:37.334Z,13.80
2023-02-26T14:21:24.397Z,10.00
2023-02-26T14:23:57.949Z,10.50
2023-02-26T14:26:27.391Z,10.50
2023-02-26T14:28:58.162Z,13.00
2023-02-26T14:31:28.002Z,5.00
2023-02-26T14:34:10.510Z,7.00
2023-02-26T14:36:43.024Z,7.00
2023-02-26T14:39:19.171Z,6.25
2023-02-26T14:41:49.339Z,8.00
2023-02-26T14:44:21.048Z,10.80
2023-02-26T14:46:50.353Z,11.60
2023-02-26T14:49:20.326Z,7.40
2023-02-26T14:51:55.999Z,4.00
2023-02-26T14:54:33.508Z,9.75
2023-02-26T14:57:04.896Z,12.00
2023-02-26T14:59:48.532Z,9.50
2023-02-26T15:02:27.821Z,7.00
2023-02-26T15:05:14.373Z,14.80
2023-02-26T15:07:59.947Z,7.00
2023-02-26T15:10:36.422Z,13.00
2023-02-26T15:13:21.982Z,14.80
2023-02-26T15:15:55.206Z,13.00
2023-02-26T15:18:30.029Z,9.40
2023-02-26T15:21:05.416Z,7.80
2023-02-26T15:23:42.618Z,8.20
2023-02-26T15:26:18.166Z,5.60
2023-02-26T15:28:47.120Z,3.00
2023-02-26T15:31:15.620Z,9.00
2023-02-26T15:33:45.161Z,4.50
2023-02-26T15:36:14.781Z,10.25
2023-02-26T15:38:44.107Z,7.80
2023-02-26T15:41:14.142Z,10.00
2023-02-26T15:43:46.137Z,9.50
2023-02-26T15:46:15.543Z,6.75
2023-02-26T15:48:44.707Z,6.00
2023-02-26T15:51:14.411Z,11.40
2023-02-26T15:53:44.806Z,6.40
2023-02-26T15:56:19.857Z,6.00
2023-02-26T15:58:50.911Z,9.50
2023-02-26T16:01:22.121Z,8.00
2023-02-26T16:03:52.428Z,10.80
2023-02-26T16:06:21.305Z,10.80
2023-02-26T16:08:49.550Z,15.00
2023-02-26T16:11:22.722Z,15.60
2023-02-26T16:13:52.961Z,14.80
2023-02-26T16:16:25.910Z,11.20
2023-02-26T16:18:55.795Z,8.60
2023-02-26T16:21:26.123Z,11.60
2023-02-26T16:23:55.673Z,14.00
2023-02-26T16:26:28.525Z,13.00
2023-02-26T16:28:59.161Z,11.80
2023-02-26T16:31:28.832Z,15.80
2023-02-26T16:33:58.949Z,14.20
2023-02-26T16:36:28.838Z,9.00
2023-02-26T16:39:11.547Z,9.40
2023-02-26T16:41:41.681Z,13.20
2023-02-26T16:44:37.984Z,7.00
2023-02-26T16:47:06.689Z,10.80
2023-02-26T16:49:36.292Z,15.00
2023-02-26T16:52:05.366Z,12.80
2023-02-26T16:54:36.124Z,7.00
2023-02-26T16:57:07.748Z,8.20
2023-02-26T16:59:38.545Z,11.00
2023-02-26T17:02:13.067Z,16.20
2023-02-26T17:04:41.548Z,4.40
2023-02-26T17:07:17.505Z,7.60
2023-02-26T17:09:50.808Z,9.00
2023-02-26T17:12:22.142Z,4.00
2023-02-26T17:14:54.630Z,10.40
2023-02-26T17:17:23.030Z,9.00
2023-02-26T17:19:51.710Z,9.60
2023-02-26T17:22:23.655Z,12.60
2023-02-26T17:24:52.876Z,16.00
2023-02-26T17:27:25.415Z,12.20
2023-02-26T17:29:53.646Z,9.00
2023-02-26T17:32:23.009Z,9.00
2023-02-26T17:34:51.829Z,9.40
2023-02-26T17:37:20.724Z,4.00
2023-02-26T17:39:49.012Z,8.60
2023-02-26T17:42:19.499Z,5.80
2023-02-26T17:44:49.374Z,9.00
2023-02-26T17:47:18.275Z,8.20
2023-02-26T17:49:46.887Z,7.40
2023-02-26T17:52:15.517Z,7.80
2023-02-26T17:54:44.112Z,9.00
2023-02-26T17:57:16.819Z,9.40
2023-02-26T17:59:45.081Z,5.75
2023-02-26T18:02:19.675Z,5.20
2023-02-26T18:04:47.975Z,3.60
2023-02-26T18:07:17.432Z,7.00
2023-02-26T18:09:45.650Z,8.60
2023-02-26T18:12:14.655Z,4.00
2023-02-26T18:14:42.895Z,10.80
2023-02-26T18:17:14.664Z,11.20
2023-02-26T18:19:44.336Z,1.80
2023-02-26T18:22:14.700Z,4.00
2023-02-26T18:24:43.254Z,6.40
2023-02-26T18:27:14.552Z,7.00
2023-02-26T18:29:44.182Z,4.00
2023-02-26T18:32:13.902Z,7.00
2023-02-26T18:34:44.720Z,6.80
2023-02-26T18:37:15.738Z,8.20
2023-02-26T18:39:44.428Z,6.80
2023-02-26T18:42:19.113Z,0.25
2023-02-26T18:44:47.399Z,3.20
2023-02-26T18:47:15.665Z,6.25
2023-02-26T18:49:44.920Z,9.00
2023-02-26T18:52:15.015Z,6.40
2023-02-26T18:54:43.178Z,7.00
2023-02-26T18:57:11.441Z,4.20
2023-02-26T18:59:39.571Z,1.00
2023-02-26T19:02:12.065Z,4.00
2023-02-26T19:04:40.469Z,4.80
2023-02-26T19:07:09.222Z,3.20
2023-02-26T19:09:38.989Z,6.80
2023-02-26T19:12:09.308Z,4.00
2023-02-26T19:14:38.387Z,3.00
2023-02-26T19:17:06.714Z,9.20
2023-02-26T19:19:34.891Z,4.40
2023-02-26T19:22:03.100Z,6.60
2023-02-26T19:24:31.257Z,6.00
2023-02-26T19:27:00.824Z,6.40
2023-02-26T19:29:29.008Z,7.80
2023-02-26T19:31:57.564Z,4.00
2023-02-26T19:34:26.148Z,7.00
2023-02-26T19:36:55.236Z,3.20
2023-02-26T19:39:23.771Z,1.80
2023-02-26T19:41:53.526Z,4.40
2023-02-26T19:44:23.689Z,3.00
2023-02-26T19:46:53.263Z,3.60
2023-02-26T19:49:21.669Z,6.80
2023-02-26T19:51:50.415Z,3.00
2023-02-26T19:54:18.589Z,6.60
2023-02-26T19:56:47.500Z,6.00
2023-02-26T19:59:15.647Z,6.60
2023-02-26T20:01:46.668Z,3.00
2023-02-26T20:04:14.913Z,4.40
2023-02-26T20:06:43.232Z,4.00
2023-02-26T20:09:12.389Z,0.20
2023-02-26T20:11:40.738Z,6.00
2023-02-26T20:14:09.970Z,0.00
2023-02-26T20:16:38.211Z,0.00
2023-02-26T20:19:07.849Z,3.00
2023-02-26T20:21:36.410Z,1.00
2023-02-26T20:24:05.628Z,3.00
2023-02-26T20:26:34.240Z,4.00
2023-02-26T20:29:04.383Z,4.00
2023-02-26T20:31:32.702Z,5.20
2023-02-26T20:34:01.104Z,1.40
2023-02-26T20:36:30.780Z,3.00
2023-02-26T20:38:58.872Z,6.00
2023-02-26T20:41:27.357Z,2.60
2023-02-26T20:43:58.648Z,3.00
2023-02-26T20:46:27.074Z,5.60
2023-02-26T20:48:55.412Z,5.60
2023-02-26T20:51:23.616Z,6.80
2023-02-26T20:53:53.582Z,4.00
2023-02-26T20:56:24.804Z,4.00
2023-02-26T20:58:53.190Z,0.00
2023-02-26T21:01:21.385Z,0.60
2023-02-26T21:03:49.540Z,4.00
2023-02-26T21:06:17.759Z,1.00
2023-02-26T21:08:46.082Z,4.40
2023-02-26T21:11:16.267Z,3.50
2023-02-26T21:13:46.647Z,4.00
2023-02-26T21:16:14.848Z,3.75
2023-02-26T21:18:43.142Z,3.75
2023-02-26T21:21:11.418Z,4.00
2023-02-26T21:23:39.521Z,0.00
2023-02-26T21:26:09.775Z,6.80
2023-02-26T21:28:39.941Z,3.00
2023-02-26T21:31:08.238Z,4.80
2023-02-26T21:33:36.458Z,3.20
2023-02-26T21:36:05.765Z,3.00
2023-02-26T21:38:33.897Z,2.00
2023-02-26T21:41:02.059Z,3.80
2023-02-26T21:43:30.221Z,3.60
2023-02-26T21:45:59.833Z,3.00
2023-02-26T21:48:27.957Z,5.00
2023-02-26T21:50:56.788Z,6.60
2023-02-26T21:53:25.315Z,0.00
2023-02-26T21:55:53.454Z,3.50
2023-02-26T21:58:21.611Z,4.00
2023-02-26T22:00:49.878Z,2.20
2023-02-26T22:03:19.662Z,5.50
2023-02-26T22:05:47.787Z,4.00
2023-02-26T22:08:15.918Z,1.00
2023-02-26T22:10:45.700Z,1.00
2023-02-26T22:13:13.855Z,3.00
2023-02-26T22:15:42.627Z,1.00
2023-02-26T22:18:10.789Z,3.00
2023-02-26T22:20:40.317Z,1.00
2023-02-26T22:23:08.517Z,2.00
2023-02-26T22:25:36.882Z,3.00
2023-02-26T22:28:05.149Z,3.40
2023-02-26T22:30:33.378Z,3.60
2023-02-26T22:33:01.476Z,1.00
2023-02-26T22:35:29.626Z,1.40
2023-02-26T22:37:59.976Z,3.20
2023-02-26T22:40:28.132Z,1.00
2023-02-26T22:42:56.490Z,3.00
2023-02-26T22:45:24.870Z,3.60
2023-02-26T22:47:53.138Z,0.00
2023-02-26T22:50:21.436Z,4.00
2023-02-26T22:52:49.535Z,0.20
2023-02-26T22:55:19.280Z,3.20
2023-02-26T22:57:47.433Z,3.80
2023-02-26T23:00:18.828Z,3.60
2023-02-26T23:02:47.016Z,1.00
2023-02-26T23:05:15.907Z,4.00
2023-02-26T23:07:44.252Z,0.60
2023-02-26T23:10:14.030Z,2.20
2023-02-26T23:12:43.725Z,1.00
2023-02-26T23:15:12.822Z,1.00
2023-02-26T23:17:41.272Z,3.00
2023-02-26T23:20:10.938Z,3.00
2023-02-26T23:22:39.212Z,3.00
2023-02-26T23:25:07.766Z,3.00
2023-02-26T23:27:35.874Z,0.00
2023-02-26T23:30:05.932Z,2.60
2023-02-26T23:32:34.185Z,3.20
2023-02-26T23:35:02.243Z,3.00
2023-02-26T23:37:31.184Z,3.40
2023-02-26T23:39:59.508Z,3.80
2023-02-26T23:42:27.629Z,4.40
2023-02-26T23:44:55.750Z,1.80
2023-02-26T23:47:25.290Z,3.80
2023-02-26T23:49:53.472Z,3.80
2023-02-26T23:52:21.682Z,4.00
2023-02-26T23:54:49.923Z,3.60
2023-02-26T23:57:18.044Z,3.00
2023-02-26T23:59:46.184Z,0.00
